createdAt,value
2022-08-05T00:00:46.352Z,99.90
2022-08-05T00:03:15.861Z,99.90
2022-08-05T00:06:05.495Z,99.90
2022-08-05T00:08:35.515Z,99.90
2022-08-05T00:11:20.694Z,99.90
2022-08-05T00:13:59.292Z,99.90
2022-08-05T00:16:36.522Z,99.90
2022-08-05T00:19:16.351Z,99.90
2022-08-05T00:21:49.710Z,99.90
2022-08-05T00:24:19.239Z,99.90
2022-08-05T00:26:54.811Z,99.90
2022-08-05T00:29:25.404Z,99.90
2022-08-05T00:32:13.529Z,99.90
2022-08-05T00:35:05.436Z,99.90
2022-08-05T00:37:35.373Z,99.90
2022-08-05T00:40:26.886Z,99.90
2022-08-05T00:43:00.873Z,99.90
2022-08-05T00:45:38.294Z,99.90
2022-08-05T00:48:09.453Z,99.90
2022-08-05T00:50:41.274Z,99.90
2022-08-05T00:53:45.166Z,99.90
2022-08-05T00:56:01.758Z,99.90
2022-08-05T00:58:31.298Z,1.00
2022-08-05T01:01:00.165Z,1.00
2022-08-05T01:03:30.929Z,1.00
2022-08-05T01:06:02.588Z,1.00
2022-08-05T01:08:43.103Z,1.00
2022-08-05T01:11:22.390Z,1.00
2022-08-05T01:14:08.814Z,1.00
2022-08-05T01:16:52.426Z,1.00
2022-08-05T01:20:00.894Z,1.00
2022-08-05T01:22:41.389Z,1.00
2022-08-05T01:25:53.418Z,1.00
2022-08-05T01:28:39.696Z,1.00
2022-08-05T01:31:27.791Z,1.00
2022-08-05T01:34:04.003Z,1.00
2022-08-05T01:36:42.152Z,1.00
2022-08-05T01:39:45.651Z,1.00
2022-08-05T01:42:10.167Z,1.00
2022-08-05T01:44:54.331Z,1.00
2022-08-05T01:47:38.633Z,1.00
2022-08-05T01:50:15.542Z,1.00
2022-08-05T01:52:49.901Z,1.00
2022-08-05T01:55:23.285Z,1.00
2022-08-05T01:58:10.721Z,1.00
2022-08-05T02:00:50.078Z,1.00
2022-08-05T02:03:31.468Z,1.00
2022-08-05T02:06:33.470Z,1.00
2022-08-05T02:08:58.510Z,1.00
2022-08-05T02:11:32.754Z,1.00
2022-08-05T02:14:12.325Z,1.00
2022-08-05T02:16:53.083Z,1.00
2022-08-05T02:19:34.390Z,1.00
2022-08-05T02:22:25.784Z,1.00
2022-08-05T02:25:04.440Z,1.00
2022-08-05T02:27:59.866Z,1.00
2022-08-05T02:30:31.975Z,1.00
2022-08-05T02:33:06.804Z,1.00
2022-08-05T02:35:44.924Z,1.00
2022-08-05T02:38:26.953Z,1.00
2022-08-05T02:41:17.170Z,17.50
2022-08-05T02:44:02.726Z,39.00
2022-08-05T02:46:36.187Z,28.50
2022-08-05T02:49:25.316Z,41.30
2022-08-05T02:52:04.441Z,2.90
2022-08-05T02:54:35.944Z,61.60
2022-08-05T02:57:10.145Z,99.90
2022-08-05T02:59:57.628Z,99.90
2022-08-05T03:02:34.986Z,99.90
2022-08-05T03:05:08.665Z,99.90
2022-08-05T03:08:01.649Z,99.90
2022-08-05T03:10:28.875Z,99.90
2022-08-05T03:15:24.763Z,99.90
2022-08-05T03:17:55.531Z,99.90
2022-08-05T03:20:26.440Z,99.90
2022-08-05T03:22:58.046Z,99.90
2022-08-05T03:25:32.860Z,99.90
2022-08-05T03:28:18.857Z,99.90
2022-08-05T03:30:50.827Z,1.00
2022-08-05T03:33:19.680Z,1.00
2022-08-05T03:35:51.605Z,1.00
2022-08-05T03:38:32.590Z,1.00
2022-08-05T03:41:08.211Z,1.00
2022-08-05T03:44:08.881Z,1.00
2022-08-05T03:46:26.857Z,1.00
2022-08-05T03:48:59.343Z,1.00
2022-08-05T03:52:49.325Z,1.00
2022-08-05T03:55:53.702Z,1.00
2022-08-05T03:57:41.500Z,1.00
2022-08-05T04:00:16.164Z,1.00
2022-08-05T04:02:58.135Z,1.00
2022-08-05T04:05:34.053Z,1.00
2022-08-05T04:08:14.708Z,1.00
2022-08-05T04:10:58.143Z,1.00
2022-08-05T04:13:49.353Z,1.00
2022-08-05T04:16:15.722Z,1.00
2022-08-05T04:18:54.406Z,1.00
2022-08-05T04:22:10.006Z,1.00
2022-08-05T04:24:18.884Z,1.00
2022-08-05T04:26:50.852Z,1.00
2022-08-05T04:29:19.953Z,99.90
2022-08-05T04:31:48.206Z,1.00
2022-08-05T04:34:29.554Z,99.90
2022-08-05T04:37:03.137Z,99.90
2022-08-05T04:39:35.425Z,99.90
2022-08-05T04:42:04.464Z,99.90
2022-08-05T04:44:32.722Z,99.90
2022-08-05T04:47:09.955Z,99.90
2022-08-05T04:50:01.290Z,99.90
2022-08-05T04:52:28.509Z,1.00
2022-08-05T04:54:58.918Z,1.00
2022-08-05T04:57:42.256Z,1.00
2022-08-05T05:00:17.389Z,1.00
2022-08-05T05:02:47.340Z,1.00
2022-08-05T05:05:16.908Z,1.00
2022-08-05T05:08:02.104Z,1.00
2022-08-05T05:10:34.525Z,1.00
2022-08-05T05:13:03.699Z,1.00
2022-08-05T05:15:56.521Z,1.00
2022-08-05T05:18:31.559Z,1.00
2022-08-05T05:21:03.070Z,1.00
2022-08-05T05:24:01.832Z,1.00
2022-08-05T05:26:28.556Z,1.00
2022-08-05T05:29:02.549Z,1.00
2022-08-05T05:34:05.419Z,1.00
2022-08-05T05:36:33.567Z,1.00
2022-08-05T05:39:06.566Z,1.00
2022-08-05T05:41:41.888Z,1.00
2022-08-05T05:44:35.639Z,1.00
2022-08-05T05:47:04.186Z,1.00
2022-08-05T05:49:33.408Z,1.00
2022-08-05T05:52:05.863Z,99.90
2022-08-05T05:54:50.128Z,99.90
2022-08-05T05:57:20.834Z,99.90
2022-08-05T05:59:49.218Z,99.90
2022-08-05T06:02:32.575Z,99.90
2022-08-05T06:05:10.372Z,99.90
2022-08-05T06:07:57.594Z,99.90
2022-08-05T06:10:36.601Z,99.90
2022-08-05T06:13:07.060Z,99.90
2022-08-05T06:16:30.073Z,99.90
2022-08-05T06:18:30.764Z,99.90
2022-08-05T06:21:00.539Z,99.90
2022-08-05T06:23:43.777Z,99.90
2022-08-05T06:26:21.455Z,99.90
2022-08-05T06:28:54.430Z,99.90
2022-08-05T06:31:22.690Z,99.90
2022-08-05T06:34:07.001Z,99.90
2022-08-05T06:36:53.602Z,99.90
2022-08-05T06:39:27.288Z,99.90
2022-08-05T06:41:58.866Z,99.90
2022-08-05T06:44:28.838Z,99.90
2022-08-05T06:46:57.463Z,99.90
2022-08-05T06:50:01.149Z,99.90
2022-08-05T06:52:36.863Z,99.90
2022-08-05T06:55:02.974Z,99.90
2022-08-05T06:58:03.027Z,99.90
2022-08-05T07:00:22.106Z,99.90
2022-08-05T07:02:53.754Z,99.90
2022-08-05T07:05:37.494Z,99.90
2022-08-05T07:08:10.674Z,99.90
2022-08-05T07:10:53.023Z,99.90
2022-08-05T07:13:58.735Z,99.90
2022-08-05T07:18:00.996Z,99.90
2022-08-05T07:22:28.322Z,99.90
2022-08-05T07:25:23.831Z,99.90
2022-08-05T07:27:56.546Z,99.90
2022-08-05T07:30:32.174Z,99.90
2022-08-05T07:33:05.323Z,99.90
2022-08-05T07:36:05.113Z,99.90
2022-08-05T07:38:33.847Z,99.90
2022-08-05T07:41:35.026Z,99.90
2022-08-05T07:43:56.617Z,99.90
2022-08-05T07:46:26.762Z,99.90
2022-08-05T07:49:01.472Z,99.90
2022-08-05T07:51:36.889Z,99.90
2022-08-05T07:54:11.478Z,99.90
2022-08-05T07:57:02.613Z,98.60
2022-08-05T07:59:38.871Z,95.70
2022-08-05T08:02:15.600Z,93.60
2022-08-05T08:04:48.715Z,91.40
2022-08-05T08:07:22.747Z,78.30
2022-08-05T08:09:55.171Z,78.40
2022-08-05T08:12:33.377Z,86.50
2022-08-05T08:15:09.759Z,82.40
2022-08-05T08:17:46.218Z,78.10
2022-08-05T08:20:43.594Z,99.90
2022-08-05T08:24:01.070Z,63.80
2022-08-05T08:26:02.740Z,88.30
2022-08-05T08:28:36.334Z,67.10
2022-08-05T08:31:06.829Z,73.70
2022-08-05T08:33:38.091Z,67.40
2022-08-05T08:38:58.100Z,54.10
2022-08-05T08:41:51.783Z,49.10
2022-08-05T08:45:19.288Z,38.30
2022-08-05T08:47:47.779Z,31.00
2022-08-05T08:50:30.694Z,26.70
2022-08-05T08:53:07.969Z,22.20
2022-08-05T08:56:05.105Z,25.00
2022-08-05T08:58:43.949Z,42.10
2022-08-05T09:01:18.631Z,26.00
2022-08-05T09:03:52.920Z,23.70
2022-08-05T09:06:29.929Z,23.70
2022-08-05T09:09:01.893Z,28.30
2022-08-05T09:11:53.341Z,26.20
2022-08-05T09:14:57.338Z,23.80
2022-08-05T09:17:16.077Z,21.90
2022-08-05T09:20:04.904Z,25.90
2022-08-05T09:23:18.746Z,24.40
2022-08-05T09:26:02.122Z,28.30
2022-08-05T09:28:34.688Z,25.10
2022-08-05T09:32:39.272Z,27.10
2022-08-05T09:33:59.602Z,22.40
2022-08-05T09:36:54.493Z,23.80
2022-08-05T09:39:27.552Z,29.90
2022-08-05T09:42:13.551Z,29.30
2022-08-05T09:44:56.148Z,25.70
2022-08-05T09:47:48.152Z,18.60
2022-08-05T09:50:37.594Z,17.00
2022-08-05T09:53:09.154Z,16.40
2022-08-05T09:55:57.458Z,18.60
2022-08-05T09:58:29.614Z,15.90
2022-08-05T10:01:15.310Z,13.20
2022-08-05T10:04:00.302Z,11.30
2022-08-05T10:06:29.216Z,6.70
2022-08-05T10:09:27.294Z,2.80
2022-08-05T10:12:30.948Z,1.40
2022-08-05T10:15:20.580Z,1.00
2022-08-05T10:18:14.188Z,2.20
2022-08-05T10:20:48.698Z,7.40
2022-08-05T10:23:55.392Z,13.60
2022-08-05T10:26:14.165Z,17.30
2022-08-05T10:28:45.064Z,22.40
2022-08-05T10:32:50.555Z,22.50
2022-08-05T10:34:08.080Z,23.30
2022-08-05T10:36:38.302Z,30.60
2022-08-05T10:39:24.859Z,28.10
2022-08-05T10:42:13.351Z,36.00
2022-08-05T10:44:47.109Z,33.60
2022-08-05T10:47:26.770Z,31.80
2022-08-05T10:50:31.902Z,25.60
2022-08-05T10:52:59.814Z,21.80
2022-08-05T10:55:30.474Z,25.90
2022-08-05T10:58:11.720Z,25.50
2022-08-05T11:00:48.471Z,26.00
2022-08-05T11:03:27.125Z,28.80
2022-08-05T11:06:15.032Z,46.00
2022-08-05T11:09:24.499Z,27.00
2022-08-05T11:12:50.449Z,21.50
2022-08-05T11:15:23.055Z,22.60
2022-08-05T11:17:59.261Z,22.30
2022-08-05T11:20:53.108Z,22.60
2022-08-05T11:24:05.751Z,17.40
2022-08-05T11:26:28.420Z,14.80
2022-08-05T11:29:11.600Z,15.90
2022-08-05T11:31:54.040Z,9.00
2022-08-05T11:34:51.032Z,10.30
2022-08-05T11:38:30.134Z,12.80
2022-08-05T11:41:35.529Z,9.30
2022-08-05T11:44:06.534Z,10.70
2022-08-05T11:47:09.467Z,10.00
2022-08-05T11:49:28.966Z,8.50
2022-08-05T11:52:11.234Z,8.00
2022-08-05T11:54:41.833Z,6.70
2022-08-05T11:57:24.420Z,6.80
2022-08-05T11:59:54.413Z,4.60
2022-08-05T12:02:31.633Z,3.90
2022-08-05T12:05:07.662Z,3.80
2022-08-05T12:08:07.485Z,3.10
2022-08-05T12:10:38.517Z,2.10
2022-08-05T12:13:18.936Z,11.20
2022-08-05T12:16:04.096Z,7.60
2022-08-05T12:18:48.693Z,10.80
2022-08-05T12:21:29.607Z,11.50
2022-08-05T12:24:06.959Z,17.10
2022-08-05T12:26:39.378Z,18.40
2022-08-05T12:29:16.260Z,22.80
2022-08-05T12:31:53.634Z,23.70
2022-08-05T12:34:28.210Z,34.20
2022-08-05T12:36:59.007Z,45.10
2022-08-05T12:39:37.282Z,43.70
2022-08-05T12:42:15.201Z,70.40
2022-08-05T12:44:45.934Z,63.90
2022-08-05T12:47:28.835Z,68.00
2022-08-05T12:50:06.177Z,84.30
2022-08-05T12:52:41.962Z,96.40
2022-08-05T12:55:23.826Z,99.90
2022-08-05T12:58:50.693Z,99.90
2022-08-05T13:02:00.873Z,99.90
2022-08-05T13:03:42.464Z,1.00
2022-08-05T13:06:17.679Z,99.90
2022-08-05T13:08:51.444Z,1.00
2022-08-05T13:11:59.982Z,1.00
2022-08-05T13:14:24.746Z,1.00
2022-08-05T13:17:10.221Z,1.00
2022-08-05T13:19:52.149Z,99.90
2022-08-05T13:22:29.469Z,1.00
2022-08-05T13:25:00.619Z,1.00
2022-08-05T13:27:35.545Z,1.00
2022-08-05T13:30:35.314Z,1.00
2022-08-05T13:33:01.791Z,99.90
2022-08-05T13:35:47.034Z,23.60
2022-08-05T13:38:30.823Z,99.90
2022-08-05T13:41:04.804Z,1.00
2022-08-05T13:43:44.021Z,99.90
2022-08-05T13:46:30.656Z,99.90
2022-08-05T13:49:10.435Z,1.00
2022-08-05T13:51:45.909Z,1.00
2022-08-05T13:54:21.178Z,1.00
2022-08-05T13:56:54.786Z,99.90
2022-08-05T13:59:27.029Z,99.90
2022-08-05T14:02:00.344Z,99.90
2022-08-05T14:04:51.163Z,99.90
2022-08-05T14:08:00.348Z,99.90
2022-08-05T14:10:18.410Z,99.90
2022-08-05T14:12:48.725Z,99.90
2022-08-05T14:16:08.684Z,99.90
2022-08-05T14:18:17.528Z,99.90
2022-08-05T14:20:48.348Z,99.90
2022-08-05T14:23:23.477Z,99.90
2022-08-05T14:25:54.608Z,99.90
2022-08-05T14:28:28.844Z,99.90
2022-08-05T14:30:57.357Z,99.90
2022-08-05T14:33:27.053Z,94.20
2022-08-05T14:36:02.789Z,80.10
2022-08-05T14:38:34.251Z,92.80
2022-08-05T14:41:07.648Z,77.30
2022-08-05T14:44:01.594Z,65.00
2022-08-05T14:46:28.892Z,60.00
2022-08-05T14:49:06.766Z,54.60
2022-08-05T14:51:42.798Z,49.50
2022-08-05T14:54:29.965Z,88.20
2022-08-05T14:57:00.928Z,77.40
2022-08-05T14:59:35.588Z,99.90
2022-08-05T15:02:14.725Z,99.90
2022-08-05T15:04:49.905Z,99.90
2022-08-05T15:08:12.251Z,99.90
2022-08-05T15:10:09.753Z,99.90
2022-08-05T15:12:59.750Z,99.90
2022-08-05T15:15:54.960Z,99.90
2022-08-05T15:18:18.033Z,83.20
2022-08-05T15:20:47.769Z,61.20
2022-08-05T15:23:16.124Z,53.60
2022-08-05T15:25:52.302Z,45.00
2022-08-05T15:28:27.120Z,51.60
2022-08-05T15:30:56.718Z,64.40
2022-08-05T15:33:56.734Z,82.30
2022-08-05T15:36:17.204Z,95.20
2022-08-05T15:38:46.871Z,99.90
2022-08-05T15:41:22.464Z,99.90
2022-08-05T15:43:52.265Z,99.90
2022-08-05T15:46:24.635Z,99.90
2022-08-05T15:49:00.671Z,99.90
2022-08-05T15:52:09.872Z,99.90
2022-08-05T15:54:20.294Z,99.90
2022-08-05T15:57:03.740Z,96.50
2022-08-05T15:59:38.233Z,94.10
2022-08-05T16:02:14.463Z,98.60
2022-08-05T16:04:44.013Z,99.90
2022-08-05T16:07:13.860Z,99.90
2022-08-05T16:09:43.713Z,99.90
2022-08-05T16:12:12.280Z,99.90
2022-08-05T16:14:41.024Z,99.90
2022-08-05T16:17:10.221Z,99.90
2022-08-05T16:20:10.968Z,99.90
2022-08-05T16:22:34.461Z,99.90
2022-08-05T16:25:08.187Z,99.90
2022-08-05T16:27:59.852Z,99.90
2022-08-05T16:30:29.301Z,99.90
2022-08-05T16:32:58.221Z,99.90
2022-08-05T16:35:27.678Z,99.90
2022-08-05T16:38:16.827Z,99.90
2022-08-05T16:40:55.330Z,99.90
2022-08-05T16:43:30.336Z,99.90
2022-08-05T16:46:04.312Z,99.90
2022-08-05T16:48:39.087Z,99.90
2022-08-05T16:51:09.267Z,99.90
2022-08-05T16:54:04.215Z,99.90
2022-08-05T16:56:33.916Z,99.90
2022-08-05T16:59:08.482Z,99.90
2022-08-05T17:01:54.024Z,99.90
2022-08-05T17:04:29.086Z,99.90
2022-08-05T17:07:03.112Z,99.90
2022-08-05T17:09:38.869Z,99.90
2022-08-05T17:12:22.525Z,99.90
2022-08-05T17:15:15.541Z,99.90
2022-08-05T17:17:44.386Z,99.90
2022-08-05T17:20:16.597Z,1.00
2022-08-05T17:22:45.021Z,1.00
2022-08-05T17:25:33.564Z,1.00
2022-08-05T17:28:02.919Z,1.00
2022-08-05T17:30:31.505Z,1.00
2022-08-05T17:32:59.739Z,1.00
2022-08-05T17:35:32.567Z,1.00
2022-08-05T17:38:17.527Z,1.00
2022-08-05T17:40:47.628Z,1.00
2022-08-05T17:43:17.951Z,1.00
2022-08-05T17:46:06.335Z,1.00
2022-08-05T17:48:38.443Z,48.30
2022-08-05T17:51:09.240Z,99.90
2022-08-05T17:53:39.354Z,1.00
2022-08-05T17:56:13.292Z,1.00
2022-08-05T17:58:46.034Z,1.00
2022-08-05T18:01:14.175Z,99.90
2022-08-05T18:03:56.203Z,99.90
2022-08-05T18:06:29.410Z,99.90
2022-08-05T18:08:59.449Z,1.00
2022-08-05T18:11:33.453Z,10.60
2022-08-05T18:14:07.187Z,99.90
2022-08-05T18:16:51.280Z,1.00
2022-08-05T18:19:22.843Z,1.00
2022-08-05T18:22:07.733Z,99.90
2022-08-05T18:24:39.544Z,99.90
2022-08-05T18:27:12.511Z,99.90
2022-08-05T18:29:53.720Z,99.90
2022-08-05T18:32:27.997Z,1.00
2022-08-05T18:34:58.344Z,99.90
2022-08-05T18:37:34.768Z,1.00
2022-08-05T18:41:03.363Z,1.00
2022-08-05T18:43:00.368Z,1.00
2022-08-05T18:45:40.961Z,99.90
2022-08-05T18:48:11.915Z,99.90
2022-08-05T18:52:06.555Z,99.90
2022-08-05T18:53:51.808Z,1.00
2022-08-05T18:56:21.734Z,30.50
2022-08-05T18:59:01.145Z,99.90
2022-08-05T19:01:47.180Z,99.90
2022-08-05T19:04:24.087Z,99.90
2022-08-05T19:06:53.790Z,1.00
2022-08-05T19:09:22.659Z,1.00
2022-08-05T19:12:00.494Z,1.00
2022-08-05T19:14:59.594Z,1.00
2022-08-05T19:17:20.101Z,1.00
2022-08-05T19:19:50.789Z,1.00
2022-08-05T19:22:22.898Z,1.00
2022-08-05T19:25:00.671Z,1.00
2022-08-05T19:27:30.930Z,1.00
2022-08-05T19:30:02.945Z,1.00
2022-08-05T19:32:32.350Z,1.00
2022-08-05T19:35:05.612Z,1.00
2022-08-05T19:38:04.315Z,1.00
2022-08-05T19:40:24.125Z,1.00
2022-08-05T19:43:04.586Z,1.00
2022-08-05T19:45:36.754Z,1.00
2022-08-05T19:48:06.755Z,1.00
2022-08-05T19:50:43.587Z,1.00
2022-08-05T19:53:12.301Z,1.00
2022-08-05T19:56:14.066Z,99.90
2022-08-05T19:58:30.107Z,99.90
2022-08-05T20:01:00.158Z,99.90
2022-08-05T20:03:40.662Z,99.90
2022-08-05T20:06:11.659Z,99.90
2022-08-05T20:08:47.554Z,99.90
2022-08-05T20:11:17.995Z,99.90
2022-08-05T20:13:58.367Z,69.50
2022-08-05T20:16:28.798Z,99.90
2022-08-05T20:18:57.957Z,99.90
2022-08-05T20:21:29.032Z,99.90
2022-08-05T20:23:59.976Z,48.10
2022-08-05T20:26:28.514Z,62.40
2022-08-05T20:29:00.850Z,1.00
2022-08-05T20:31:42.752Z,1.00
2022-08-05T20:34:19.459Z,99.90
2022-08-05T20:36:48.342Z,1.00
2022-08-05T20:39:17.067Z,1.00
2022-08-05T20:41:47.700Z,1.00
2022-08-05T20:44:29.922Z,1.00
2022-08-05T20:47:03.418Z,1.00
2022-08-05T20:49:33.246Z,1.00
2022-08-05T20:52:10.700Z,1.00
2022-08-05T20:54:42.805Z,1.00
2022-08-05T20:57:43.408Z,99.90
2022-08-05T21:00:40.172Z,1.00
2022-08-05T21:03:08.262Z,99.90
2022-08-05T21:05:53.941Z,99.90
2022-08-05T21:08:26.515Z,99.90
2022-08-05T21:11:09.035Z,99.90
2022-08-05T21:13:48.276Z,1.00
2022-08-05T21:16:29.346Z,1.00
2022-08-05T21:19:01.151Z,1.00
2022-08-05T21:21:39.473Z,1.00
2022-08-05T21:24:15.482Z,1.00
2022-08-05T21:26:47.391Z,1.00
2022-08-05T21:29:23.388Z,1.00
2022-08-05T21:31:51.953Z,1.00
2022-08-05T21:34:23.055Z,1.00
2022-08-05T21:36:52.559Z,1.00
2022-08-05T21:39:26.542Z,1.00
2022-08-05T21:42:01.260Z,1.00
2022-08-05T21:44:31.016Z,1.00
2022-08-05T21:47:00.501Z,1.00
2022-08-05T21:49:56.570Z,1.00
2022-08-05T21:52:27.451Z,1.00
2022-08-05T21:54:57.652Z,1.00
2022-08-05T21:57:34.683Z,1.00
2022-08-05T22:00:10.661Z,1.00
2022-08-05T22:02:39.916Z,1.00
2022-08-05T22:05:12.402Z,1.00
2022-08-05T22:07:58.270Z,1.00
2022-08-05T22:10:28.294Z,1.00
2022-08-05T22:12:58.866Z,1.00
2022-08-05T22:16:00.990Z,1.00
2022-08-05T22:18:19.497Z,30.60
2022-08-05T22:20:51.606Z,1.00
2022-08-05T22:24:02.453Z,1.00
2022-08-05T22:26:49.997Z,99.90
2022-08-05T22:29:26.619Z,99.90
2022-08-05T22:32:02.559Z,1.00
2022-08-05T22:34:32.178Z,1.00
2022-08-05T22:37:04.036Z,1.00
2022-08-05T22:39:35.021Z,1.00
2022-08-05T22:42:10.353Z,1.00
2022-08-05T22:44:40.201Z,53.10
2022-08-05T22:47:08.447Z,99.90
2022-08-05T22:50:18.014Z,1.00
2022-08-05T22:52:32.712Z,99.90
2022-08-05T22:55:04.218Z,1.00
2022-08-05T22:57:46.669Z,1.00
2022-08-05T23:00:20.927Z,3.60
2022-08-05T23:02:50.617Z,99.90
2022-08-05T23:05:21.957Z,99.90
2022-08-05T23:07:52.436Z,1.00
2022-08-05T23:10:24.004Z,99.90
2022-08-05T23:12:55.031Z,99.90
2022-08-05T23:15:29.149Z,99.90
2022-08-05T23:18:03.160Z,99.90
2022-08-05T23:20:37.553Z,99.90
2022-08-05T23:23:08.958Z,99.90
2022-08-05T23:25:53.572Z,99.90
2022-08-05T23:28:28.866Z,99.90
2022-08-05T23:31:15.808Z,99.90
2022-08-05T23:34:03.805Z,99.90
2022-08-05T23:36:40.197Z,99.90
2022-08-05T23:39:17.243Z,99.90
2022-08-05T23:42:00.273Z,99.90
2022-08-05T23:44:31.327Z,99.90
2022-08-05T23:47:02.437Z,99.90
2022-08-05T23:49:35.875Z,99.90
2022-08-05T23:52:25.294Z,99.90
2022-08-05T23:54:56.359Z,99.90
2022-08-05T23:57:28.053Z,99.90
